Time;durP1;ratioP1;P1;durP2;ratioP2;P2;SDS_P1;SDS_P2;PMS_P1;PMS_P2;Temp;Humidity;BMP_temperature;BMP_pressure;BME280_temperature;BME280_humidity;BME280_pressure;Samples;Min_cycle;Max_cycle;Signal;HPM_P1;HPM_P2
2023/10/26 00:02:07;;;;;;;59.88;36.40;;;;;;;8.69;100.00;99448.97;5075924;28;20111;-74
2023/10/26 00:04:32;;;;;;;59.95;36.13;;;;;;;8.72;100.00;99453.19;5073517;28;20103;-74
2023/10/26 00:07:00;;;;;;;60.67;36.53;;;;;;;8.71;100.00;99459.47;5092500;28;20032;-75
2023/10/26 00:09:26;;;;;;;58.42;36.00;;;;;;;8.61;100.00;99455.69;5069037;28;20082;-75
2023/10/26 00:11:51;;;;;;;54.72;36.05;;;;;;;8.64;100.00;99466.94;5087620;28;20392;-74
2023/10/26 00:14:16;;;;;;;56.03;34.83;;;;;;;8.62;100.00;99468.88;5088792;28;20025;-75
2023/10/26 00:16:42;;;;;;;54.55;35.17;;;;;;;8.65;100.00;99465.16;5088969;28;20147;-75
2023/10/26 00:19:07;;;;;;;56.03;34.78;;;;;;;8.63;100.00;99469.72;5075690;28;20032;-75
2023/10/26 00:21:32;;;;;;;56.28;35.33;;;;;;;8.64;100.00;99476.72;5079916;28;20096;-75
2023/10/26 00:23:57;;;;;;;55.63;35.08;;;;;;;8.65;100.00;99473.09;5087960;28;20023;-76
2023/10/26 00:26:23;;;;;;;49.78;32.60;;;;;;;8.61;100.00;99476.91;5090012;28;20090;-75
2023/10/26 00:28:49;;;;;;;54.97;33.90;;;;;;;8.56;100.00;99474.53;5077895;28;20050;-75
2023/10/26 00:31:14;;;;;;;47.25;31.42;;;;;;;8.53;100.00;99477.41;5089058;28;20093;-76
2023/10/26 00:33:39;;;;;;;51.65;31.42;;;;;;;8.52;100.00;99481.00;5076159;28;20462;-75
2023/10/26 00:36:05;;;;;;;48.38;31.85;;;;;;;8.53;100.00;99487.16;5074365;28;20036;-76
2023/10/26 00:38:31;;;;;;;48.42;32.10;;;;;;;8.51;100.00;99495.22;5073651;28;20038;-75
2023/10/26 00:40:56;;;;;;;47.58;31.65;;;;;;;8.51;100.00;99492.56;5071551;28;20032;-76
2023/10/26 00:43:24;;;;;;;48.47;31.75;;;;;;;8.50;100.00;99492.66;5094845;28;20351;-75
2023/10/26 00:45:53;;;;;;;47.08;30.40;;;;;;;8.46;100.00;99495.50;5084728;28;20314;-76
2023/10/26 00:48:23;;;;;;;46.95;32.50;;;;;;;8.41;100.00;99486.16;5099618;28;20126;-75
2023/10/26 00:50:48;;;;;;;51.35;32.78;;;;;;;8.42;100.00;99507.25;5070333;28;20034;-76
2023/10/26 00:53:16;;;;;;;47.58;32.15;;;;;;;8.42;100.00;99504.59;5074023;28;20357;-76
2023/10/26 00:55:41;;;;;;;53.30;33.85;;;;;;;8.51;100.00;99502.31;5065037;28;20442;-76
2023/10/26 00:58:09;;;;;;;54.75;33.42;;;;;;;8.48;100.00;99506.88;5078249;28;20043;-74
2023/10/26 01:00:35;;;;;;;52.03;33.88;;;;;;;8.52;100.00;99506.66;5082119;28;20161;-75
2023/10/26 01:03:01;;;;;;;53.60;34.95;;;;;;;8.48;100.00;99517.50;5085043;28;20498;-76
2023/10/26 01:05:26;;;;;;;49.20;31.67;;;;;;;8.43;100.00;99521.38;5095592;28;20083;-75
2023/10/26 01:07:51;;;;;;;49.97;33.13;;;;;;;8.43;100.00;99516.91;5069654;28;20024;-74
2023/10/26 01:10:17;;;;;;;53.22;33.65;;;;;;;8.47;100.00;99529.03;5073510;28;20066;-75
2023/10/26 01:12:42;;;;;;;53.60;34.50;;;;;;;8.52;100.00;99526.06;5094646;28;20119;-75
2023/10/26 01:15:08;;;;;;;50.55;32.03;;;;;;;8.52;100.00;99525.22;5083960;28;20229;-74
2023/10/26 01:17:35;;;;;;;50.88;32.53;;;;;;;8.43;100.00;99516.91;5069446;28;20033;-75
2023/10/26 01:20:00;;;;;;;51.00;32.42;;;;;;;8.52;100.00;99528.72;5080218;28;20153;-77
2023/10/26 01:22:30;;;;;;;55.42;34.55;;;;;;;8.55;100.00;99525.88;5083850;28;20115;-76
2023/10/26 01:24:55;;;;;;;55.00;34.05;;;;;;;8.51;100.00;99528.84;5077205;28;20032;-75
2023/10/26 01:27:20;;;;;;;53.33;33.75;;;;;;;8.47;100.00;99520.22;5082712;28;20391;-76
2023/10/26 01:29:46;;;;;;;49.13;31.30;;;;;;;8.46;100.00;99523.81;5098730;28;20407;-74
2023/10/26 01:32:11;;;;;;;44.28;29.73;;;;;;;8.46;100.00;99522.03;5090031;28;20357;-76
2023/10/26 01:34:36;;;;;;;47.28;30.27;;;;;;;8.43;100.00;99518.72;5081529;28;20036;-75
2023/10/26 01:37:05;;;;;;;47.83;31.42;;;;;;;8.46;100.00;99521.19;5074749;28;20051;-75
2023/10/26 01:39:31;;;;;;;48.47;31.55;;;;;;;8.42;100.00;99517.88;5069015;28;20091;-76
2023/10/26 01:41:56;;;;;;;49.42;30.92;;;;;;;8.47;100.00;99525.53;5094330;28;20509;-75
2023/10/26 01:44:22;;;;;;;49.70;31.88;;;;;;;8.46;100.00;99527.31;5096170;28;20031;-75
2023/10/26 01:46:47;;;;;;;50.88;32.47;;;;;;;8.47;100.00;99522.88;5087185;28;20083;-75
2023/10/26 01:49:12;;;;;;;49.03;30.60;;;;;;;8.50;100.00;99527.16;5096203;28;20080;-75
2023/10/26 01:51:38;;;;;;;46.47;30.17;;;;;;;8.44;100.00;99528.38;5084073;28;20035;-75
2023/10/26 01:54:03;;;;;;;47.22;30.60;;;;;;;8.43;100.00;99522.22;5074565;28;20032;-74
2023/10/26 01:56:30;;;;;;;42.88;28.85;;;;;;;8.43;100.00;99529.31;5085239;28;20067;-76
2023/10/26 01:58:55;;;;;;;44.55;28.02;;;;;;;8.38;100.00;99521.66;5079512;28;20047;-75
2023/10/26 02:01:24;;;;;;;42.80;27.80;;;;;;;8.36;100.00;99523.53;5078164;28;20480;-74
2023/10/26 02:03:50;;;;;;;43.42;27.92;;;;;;;8.38;100.00;99528.75;5090635;28;20031;-76
2023/10/26 02:06:16;;;;;;;40.78;27.15;;;;;;;8.34;100.00;99516.63;5076244;28;20487;-75
2023/10/26 02:08:41;;;;;;;41.97;26.67;;;;;;;8.33;100.00;99525.53;5087311;28;20295;-75
2023/10/26 02:11:07;;;;;;;46.28;28.42;;;;;;;8.35;100.00;99515.66;5075569;28;20177;-75
2023/10/26 02:13:32;;;;;;;42.78;27.40;;;;;;;8.31;100.00;99509.69;5078797;28;20063;-76
2023/10/26 02:16:01;;;;;;;43.08;27.23;;;;;;;8.28;100.00;99511.69;5092466;28;20449;-76
2023/10/26 02:18:26;;;;;;;42.85;27.83;;;;;;;8.23;100.00;99511.97;5088049;28;20106;-76
2023/10/26 02:20:52;;;;;;;42.58;27.67;;;;;;;8.20;100.00;99507.72;5073219;27;20460;-74
2023/10/26 02:23:17;;;;;;;45.42;27.45;;;;;;;8.12;100.00;99510.00;5084952;28;20031;-77
2023/10/26 02:25:43;;;;;;;46.45;28.65;;;;;;;8.11;100.00;99515.38;5083697;28;20277;-75
2023/10/26 02:28:09;;;;;;;41.75;27.88;;;;;;;8.06;100.00;99512.16;5091111;28;20021;-77
2023/10/26 02:30:34;;;;;;;46.13;28.65;;;;;;;8.01;100.00;99515.09;5079432;28;20049;-75
2023/10/26 02:32:59;;;;;;;47.45;27.98;;;;;;;7.90;100.00;99507.84;5088824;28;20470;-75
2023/10/26 02:35:25;;;;;;;49.88;29.00;;;;;;;7.92;100.00;99518.31;5074495;28;20489;-75
2023/10/26 02:37:50;;;;;;;47.40;28.73;;;;;;;7.89;100.00;99511.41;5078306;28;20075;-75
2023/10/26 02:40:15;;;;;;;50.10;28.35;;;;;;;7.84;100.00;99504.69;5079440;28;20032;-76
2023/10/26 02:42:41;;;;;;;49.63;29.40;;;;;;;7.77;100.00;99506.84;5082431;28;20494;-76
2023/10/26 02:45:08;;;;;;;47.05;27.17;;;;;;;7.72;100.00;99523.00;5079047;28;20016;-74
2023/10/26 02:47:34;;;;;;;43.55;26.02;;;;;;;7.69;100.00;99517.03;5086013;28;20043;-75
2023/10/26 02:49:59;;;;;;;48.28;27.30;;;;;;;7.63;100.00;99510.34;5081579;28;20543;-76
2023/10/26 02:52:24;;;;;;;53.00;29.67;;;;;;;7.61;100.00;99516.69;5066649;28;20028;-75
2023/10/26 02:54:50;;;;;;;45.58;28.25;;;;;;;7.59;100.00;99515.91;5084135;28;20016;-75
2023/10/26 02:57:15;;;;;;;45.20;27.13;;;;;;;7.49;100.00;99523.56;5075916;28;20024;-76
2023/10/26 02:59:40;;;;;;;43.88;26.25;;;;;;;7.39;100.00;99517.94;5083685;28;20033;-77
2023/10/26 03:02:06;;;;;;;47.53;27.20;;;;;;;7.43;100.00;99523.91;5072916;28;20027;-75
2023/10/26 03:04:34;;;;;;;44.00;26.83;;;;;;;7.38;100.00;99512.75;5085414;28;20032;-75
2023/10/26 03:06:59;;;;;;;47.47;26.92;;;;;;;7.32;100.00;99505.16;5091792;28;20027;-75
2023/10/26 03:09:25;;;;;;;47.53;26.70;;;;;;;7.25;100.00;99504.66;5082670;28;20042;-76
2023/10/26 03:11:51;;;;;;;46.28;25.92;;;;;;;7.23;100.00;99507.41;5067143;28;20510;-76
2023/10/26 03:14:18;;;;;;;48.22;25.48;;;;;;;7.19;100.00;99511.19;5084936;28;20028;-76
2023/10/26 03:16:43;;;;;;;43.85;26.48;;;;;;;7.12;100.00;99501.03;5097632;27;20085;-75
2023/10/26 03:19:09;;;;;;;38.13;24.13;;;;;;;7.13;100.00;99515.97;5087353;28;20514;-75
2023/10/26 03:21:35;;;;;;;46.72;26.10;;;;;;;7.14;100.00;99522.94;5081821;28;20051;-75
2023/10/26 03:24:00;;;;;;;45.40;26.23;;;;;;;7.09;100.00;99523.22;5086068;28;20020;-76
2023/10/26 03:26:26;;;;;;;47.67;27.17;;;;;;;7.07;100.00;99519.81;5092369;28;20024;-76
2023/10/26 03:28:52;;;;;;;42.38;25.15;;;;;;;7.06;100.00;99520.75;5073994;28;20044;-76
2023/10/26 03:31:18;;;;;;;49.97;26.92;;;;;;;7.03;100.00;99520.09;5093826;27;20118;-75
2023/10/26 03:33:44;;;;;;;43.03;26.25;;;;;;;6.90;100.00;99504.91;5090722;28;20034;-75
2023/10/26 03:36:18;;;;;;;48.45;26.80;;;;;;;6.95;100.00;99515.22;5082945;28;20070;-76
2023/10/26 03:38:45;;;;;;;45.38;26.25;;;;;;;6.80;100.00;99494.94;5075038;28;20047;-76
2023/10/26 03:41:11;;;;;;;48.13;25.02;;;;;;;6.79;100.00;99501.16;5088704;28;20081;-77
2023/10/26 03:43:36;;;;;;;41.45;25.25;;;;;;;6.78;100.00;99495.03;5084522;28;20427;-75
2023/10/26 03:46:02;;;;;;;42.33;25.10;;;;;;;6.74;100.00;99481.13;5076331;28;20027;-75
2023/10/26 03:48:28;;;;;;;41.83;24.70;;;;;;;6.76;100.00;99499.53;5073258;28;20499;-76
2023/10/26 03:50:53;;;;;;;54.65;26.75;;;;;;;6.70;100.00;99494.63;5080569;28;20032;-75
2023/10/26 03:53:18;;;;;;;46.03;26.10;;;;;;;6.77;100.00;99495.94;5080109;28;20107;-76
2023/10/26 03:55:44;;;;;;;42.60;24.55;;;;;;;6.76;100.00;99491.59;5078672;28;20035;-76
2023/10/26 03:58:12;;;;;;;43.30;24.92;;;;;;;6.71;100.00;99486.59;5079168;28;20031;-75
2023/10/26 04:00:37;;;;;;;40.65;24.33;;;;;;;6.70;100.00;99476.09;5080444;28;20031;-76
2023/10/26 04:03:03;;;;;;;43.67;25.40;;;;;;;6.65;100.00;99473.72;5076303;28;20028;-75
2023/10/26 04:05:28;;;;;;;47.17;25.92;;;;;;;6.63;100.00;99472.94;5091398;28;20059;-75
2023/10/26 04:07:56;;;;;;;42.08;25.05;;;;;;;6.60;100.00;99466.97;5076130;28;20039;-76
2023/10/26 04:10:21;;;;;;;46.33;25.20;;;;;;;6.54;100.00;99473.47;5083245;28;20039;-75
2023/10/26 04:12:47;;;;;;;43.03;25.23;;;;;;;6.55;100.00;99471.66;5070313;28;20389;-76
2023/10/26 04:15:12;;;;;;;43.45;25.15;;;;;;;6.55;100.00;99467.22;5086229;28;20205;-76
2023/10/26 04:17:38;;;;;;;42.70;25.38;;;;;;;6.46;100.00;99463.31;5065249;28;20029;-75
2023/10/26 04:20:07;;;;;;;55.00;26.13;;;;;;;6.45;100.00;99474.84;5075325;28;20024;-75
2023/10/26 04:22:33;;;;;;;46.58;24.75;;;;;;;6.45;100.00;99472.19;5090597;28;20383;-76
2023/10/26 04:24:58;;;;;;;41.60;24.80;;;;;;;6.42;100.00;99476.78;5080284;28;20385;-75
2023/10/26 04:27:26;;;;;;;42.80;25.13;;;;;;;6.38;100.00;99485.81;5077049;28;20419;-74
2023/10/26 04:29:52;;;;;;;35.38;23.30;;;;;;;6.30;100.00;99480.09;5073049;28;20021;-75
2023/10/26 04:32:17;;;;;;;49.60;26.40;;;;;;;6.34;100.00;99492.22;5086701;28;20347;-75
2023/10/26 04:34:44;;;;;;;41.90;24.13;;;;;;;6.28;100.00;99484.63;5080304;28;20481;-75
2023/10/26 04:37:10;;;;;;;37.50;24.40;;;;;;;6.25;100.00;99485.66;5083988;28;20252;-75
2023/10/26 04:39:36;;;;;;;41.15;23.58;;;;;;;6.24;100.00;99484.78;5084924;28;20024;-76
2023/10/26 04:42:03;;;;;;;39.75;24.05;;;;;;;6.17;100.00;99486.06;5072898;28;20051;-75
2023/10/26 04:44:29;;;;;;;41.20;25.17;;;;;;;6.12;100.00;99480.19;5073476;28;20429;-75
2023/10/26 04:46:54;;;;;;;43.33;24.85;;;;;;;6.05;100.00;99481.44;5084689;28;20264;-76
2023/10/26 04:49:19;;;;;;;45.90;26.08;;;;;;;6.03;100.00;99488.59;5072885;28;20024;-76
2023/10/26 04:51:45;;;;;;;35.63;23.58;;;;;;;5.96;100.00;99485.44;5085684;28;20085;-75
2023/10/26 04:54:10;;;;;;;51.50;25.30;;;;;;;5.97;100.00;99481.00;5078372;28;20035;-76
2023/10/26 04:56:35;;;;;;;41.80;25.10;;;;;;;5.94;100.00;99476.75;5092541;28;20446;-76
2023/10/26 04:59:01;;;;;;;39.15;24.13;;;;;;;5.90;100.00;99474.31;5071834;28;20027;-76
2023/10/26 05:01:26;;;;;;;50.58;25.67;;;;;;;5.85;100.00;99463.13;5083785;28;20486;-76
2023/10/26 05:03:53;;;;;;;47.67;25.00;;;;;;;5.87;100.00;99475.34;5082703;28;20035;-76
2023/10/26 05:06:18;;;;;;;39.88;24.63;;;;;;;5.81;100.00;99477.44;5091843;28;20032;-77
2023/10/26 05:08:46;;;;;;;39.47;24.75;;;;;;;5.79;100.00;99480.16;5090101;28;20383;-76
2023/10/26 05:11:11;;;;;;;44.55;26.52;;;;;;;5.77;100.00;99474.13;5077074;28;20158;-75
2023/10/26 05:13:37;;;;;;;40.95;25.20;;;;;;;5.76;100.00;99472.41;5084493;28;20039;-75
2023/10/26 05:16:03;;;;;;;45.95;26.10;;;;;;;5.68;100.00;99466.66;5087481;28;20019;-76
2023/10/26 05:18:28;;;;;;;42.50;24.50;;;;;;;5.66;100.00;99455.34;5098520;28;20110;-76
2023/10/26 05:20:57;;;;;;;44.75;24.85;;;;;;;5.58;100.00;99468.94;5083366;28;20020;-76
2023/10/26 05:23:22;;;;;;;38.13;24.30;;;;;;;5.62;100.00;99470.50;5090656;28;20023;-77
2023/10/26 05:25:48;;;;;;;42.22;24.33;;;;;;;5.57;100.00;99461.97;5070422;28;20028;-75
2023/10/26 05:28:13;;;;;;;38.90;24.33;;;;;;;5.59;100.00;99460.09;5068115;28;20059;-76
2023/10/26 05:30:39;;;;;;;51.40;25.27;;;;;;;5.63;100.00;99459.00;5083929;28;20473;-75
2023/10/26 05:33:04;;;;;;;58.83;28.70;;;;;;;5.89;100.00;99464.69;5083865;28;20116;-75
2023/10/26 05:35:29;;;;;;;99.28;37.97;;;;;;;6.06;100.00;99455.88;5090534;28;20388;-76
2023/10/26 05:37:55;;;;;;;181.32;42.67;;;;;;;6.20;100.00;99454.19;5077277;28;20386;-75
2023/10/26 05:40:20;;;;;;;240.40;52.65;;;;;;;6.26;100.00;99455.63;5073070;28;20314;-76
2023/10/26 05:42:46;;;;;;;324.80;56.45;;;;;;;6.41;100.00;99462.72;5068377;28;20094;-77
2023/10/26 05:45:11;;;;;;;247.65;50.72;;;;;;;6.41;100.00;99446.03;5074433;28;20029;-75
2023/10/26 05:47:36;;;;;;;183.60;44.70;;;;;;;6.49;100.00;99452.56;5066649;28;20045;-76
2023/10/26 05:50:03;;;;;;;203.75;48.90;;;;;;;6.52;100.00;99451.56;5079676;28;20031;-77
2023/10/26 05:52:28;;;;;;;244.88;50.55;;;;;;;6.58;100.00;99453.84;5076540;28;20592;-77
2023/10/26 05:54:57;;;;;;;201.73;47.95;;;;;;;6.61;100.00;99445.75;5074066;28;20469;-76
2023/10/26 05:57:22;;;;;;;417.83;64.57;;;;;;;6.68;100.00;99451.53;5091940;28;20043;-79
2023/10/26 05:59:48;;;;;;;232.05;48.83;;;;;;;6.71;100.00;99444.28;5081699;28;20056;-78
2023/10/26 06:02:13;;;;;;;175.57;46.65;;;;;;;6.70;100.00;99439.09;5077039;28;20474;-77
2023/10/26 06:04:38;;;;;;;297.63;53.22;;;;;;;6.76;100.00;99446.66;5085233;28;20042;-78
2023/10/26 06:07:04;;;;;;;208.40;48.58;;;;;;;6.78;100.00;99460.66;5096741;27;20035;-76
2023/10/26 06:09:29;;;;;;;241.48;52.20;;;;;;;6.76;100.00;99444.00;5080328;27;20043;-78
2023/10/26 06:11:55;;;;;;;248.98;52.63;;;;;;;6.82;100.00;99451.59;5081232;28;20015;-76
2023/10/26 06:14:20;;;;;;;236.20;49.05;;;;;;;6.84;100.00;99452.34;5069714;28;20494;-76
2023/10/26 06:16:46;;;;;;;162.85;44.28;;;;;;;6.88;100.00;99451.25;5074703;28;20020;-76
2023/10/26 06:19:12;;;;;;;284.70;55.05;;;;;;;6.81;100.00;99436.66;5074827;28;20525;-76
2023/10/26 06:21:38;;;;;;;202.55;47.90;;;;;;;6.91;100.00;99448.44;5080270;28;20024;-77
2023/10/26 06:24:05;;;;;;;139.38;45.60;;;;;;;6.97;100.00;99453.34;5083193;28;20121;-76
2023/10/26 06:26:31;;;;;;;150.27;45.58;;;;;;;6.99;100.00;99450.63;5085293;28;20043;-76
2023/10/26 06:28:56;;;;;;;214.38;49.42;;;;;;;6.99;100.00;99451.47;5077097;28;20051;-77
2023/10/26 06:31:21;;;;;;;162.18;43.58;;;;;;;6.96;100.00;99440.22;5080635;28;20016;-76
2023/10/26 06:33:47;;;;;;;244.43;51.75;;;;;;;6.98;100.00;99449.78;5079129;28;20382;-76
2023/10/26 06:36:12;;;;;;;300.92;56.40;;;;;;;6.98;100.00;99448.91;5072993;28;20069;-77
2023/10/26 06:38:39;;;;;;;249.85;51.10;;;;;;;7.02;100.00;99452.22;5075797;28;21466;-77
2023/10/26 06:41:06;;;;;;;279.13;53.38;;;;;;;7.03;100.00;99454.81;5084604;28;20023;-77
2023/10/26 06:43:31;;;;;;;165.50;45.78;;;;;;;7.06;100.00;99459.03;5074802;28;20128;-77
2023/10/26 06:45:58;;;;;;;161.65;46.78;;;;;;;7.04;100.00;99445.06;5075852;28;20477;-76
2023/10/26 06:48:23;;;;;;;257.90;53.83;;;;;;;7.07;100.00;99444.91;5079370;28;20090;-76
2023/10/26 06:50:49;;;;;;;190.27;47.53;;;;;;;7.08;100.00;99449.22;5071590;28;20278;-76
2023/10/26 06:53:14;;;;;;;266.70;51.97;;;;;;;7.06;100.00;99451.09;5062346;28;20031;-76
2023/10/26 06:55:39;;;;;;;221.90;49.42;;;;;;;7.08;100.00;99443.94;5080497;28;21498;-76
2023/10/26 06:58:05;;;;;;;145.35;43.92;;;;;;;7.08;100.00;99441.31;5072726;28;20035;-76
2023/10/26 07:00:31;;;;;;;140.40;42.58;;;;;;;7.14;100.00;99446.22;5069105;28;20040;-75
2023/10/26 07:02:57;;;;;;;177.35;45.13;;;;;;;7.06;100.00;99441.38;5069815;28;20193;-76
2023/10/26 07:05:22;;;;;;;200.10;45.88;;;;;;;7.07;100.00;99439.59;5083121;28;20124;-76
2023/10/26 07:07:48;;;;;;;284.17;50.17;;;;;;;7.10;100.00;99437.59;5078896;28;20454;-77
2023/10/26 07:10:18;;;;;;;247.07;48.10;;;;;;;7.06;100.00;99429.94;5067221;28;20032;-76
2023/10/26 07:12:44;;;;;;;222.70;48.38;;;;;;;7.16;100.00;99431.13;5073640;28;20032;-77
2023/10/26 07:15:10;;;;;;;188.52;43.75;;;;;;;7.12;100.00;99432.25;5070730;28;20051;-78
2023/10/26 07:17:35;;;;;;;167.38;42.95;;;;;;;7.27;100.00;99452.47;5065766;28;20020;-79
2023/10/26 07:20:03;;;;;;;150.45;42.85;;;;;;;7.30;100.00;99454.09;5071554;28;20506;-77
2023/10/26 07:22:28;;;;;;;199.95;46.17;;;;;;;7.23;100.00;99433.31;5071391;28;20032;-78
2023/10/26 07:24:53;;;;;;;157.90;39.58;;;;;;;7.18;100.00;99443.28;5069101;28;20402;-78
2023/10/26 07:27:19;;;;;;;183.50;40.33;;;;;;;7.12;100.00;99446.31;5080106;28;20074;-77
2023/10/26 07:29:46;;;;;;;99.30;33.85;;;;;;;7.19;100.00;99442.38;5068243;28;20803;-78
2023/10/26 07:32:11;;;;;;;125.07;37.08;;;;;;;7.19;100.00;99436.19;5083195;28;20032;-80
2023/10/26 07:34:37;;;;;;;147.05;37.15;;;;;;;7.13;100.00;99433.94;5076073;28;20620;-79
2023/10/26 07:37:02;;;;;;;145.50;38.53;;;;;;;7.11;100.00;99434.03;5069088;28;20064;-78
2023/10/26 07:39:28;;;;;;;92.47;34.38;;;;;;;7.27;100.00;99441.03;5078712;28;20021;-79
2023/10/26 07:41:53;;;;;;;220.32;42.83;;;;;;;7.27;100.00;99444.53;5069293;28;20048;-78
2023/10/26 07:44:19;;;;;;;227.32;44.40;;;;;;;7.20;100.00;99436.13;5071756;28;20028;-78
2023/10/26 07:46:44;;;;;;;209.40;41.83;;;;;;;7.19;100.00;99441.50;5079320;28;20430;-77
2023/10/26 07:49:09;;;;;;;121.50;37.22;;;;;;;7.29;100.00;99445.31;5072365;28;20158;-78
2023/10/26 07:51:35;;;;;;;153.43;39.15;;;;;;;7.31;100.00;99454.00;5070519;28;20036;-80
2023/10/26 07:54:00;;;;;;;173.48;39.67;;;;;;;7.27;100.00;99456.94;5069056;28;20025;-80
2023/10/26 07:56:30;;;;;;;252.57;46.05;;;;;;;7.24;100.00;99460.63;5070096;28;20059;-77
2023/10/26 07:58:58;;;;;;;112.05;36.10;;;;;;;7.41;100.00;99464.91;5078764;28;20031;-78
2023/10/26 08:01:24;;;;;;;101.82;36.63;;;;;;;7.46;100.00;99463.69;5064342;28;20459;-77
2023/10/26 08:03:49;;;;;;;162.27;42.80;;;;;;;7.55;100.00;99461.44;5081080;28;20032;-78
2023/10/26 08:06:14;;;;;;;117.68;40.55;;;;;;;7.65;100.00;99455.50;5086212;28;20130;-80
2023/10/26 08:08:40;;;;;;;130.40;39.88;;;;;;;7.75;100.00;99469.03;5085934;28;20122;-78
2023/10/26 08:11:11;;;;;;;93.05;36.03;;;;;;;7.67;100.00;99468.63;5081793;28;20021;-79
2023/10/26 08:13:36;;;;;;;113.35;37.92;;;;;;;7.72;100.00;99480.63;5085891;28;20168;-78
2023/10/26 08:16:02;;;;;;;105.00;37.67;;;;;;;7.72;100.00;99478.00;5080437;28;20036;-78
2023/10/26 08:18:27;;;;;;;166.35;41.30;;;;;;;7.70;100.00;99468.47;5072562;28;20048;-77
2023/10/26 08:20:53;;;;;;;98.03;33.75;;;;;;;7.78;100.00;99473.28;5081257;28;20028;-80
2023/10/26 08:23:19;;;;;;;135.82;38.13;;;;;;;7.72;100.00;99469.19;5071392;28;20498;-81
2023/10/26 08:25:44;;;;;;;109.30;35.63;;;;;;;7.81;100.00;99465.13;5075890;28;20479;-79
2023/10/26 08:28:10;;;;;;;112.15;35.65;;;;;;;7.88;100.00;99477.06;5080691;28;20038;-78
2023/10/26 08:30:37;;;;;;;86.40;35.03;;;;;;;8.03;100.00;99473.47;5077336;28;20032;-77
2023/10/26 08:33:04;;;;;;;94.20;37.22;;;;;;;8.16;100.00;99477.06;5084114;28;20083;-80
2023/10/26 08:35:30;;;;;;;74.32;34.65;;;;;;;8.29;100.00;99471.84;5093514;28;20342;-79
2023/10/26 08:37:56;;;;;;;83.15;36.10;;;;;;;8.42;100.00;99467.50;5083359;28;20826;-77
2023/10/26 08:40:21;;;;;;;85.80;35.35;;;;;;;8.50;100.00;99463.50;5081091;28;20026;-78
2023/10/26 08:42:47;;;;;;;82.07;31.50;;;;;;;8.48;100.00;99477.72;5071558;28;20032;-79
2023/10/26 08:45:21;;;;;;;59.80;28.83;;;;;;;8.26;100.00;99469.38;5093238;28;20360;-79
2023/10/26 08:47:49;;;;;;;62.95;27.92;;;;;;;8.29;100.00;99482.44;5089840;28;20134;-77
2023/10/26 08:50:16;;;;;;;54.45;28.20;;;;;;;8.26;100.00;99469.38;5087473;28;20155;-79
2023/10/26 08:52:41;;;;;;;82.55;29.98;;;;;;;8.26;100.00;99479.97;5086383;28;20082;-77
2023/10/26 08:55:08;;;;;;;50.05;27.15;;;;;;;8.35;100.00;99483.84;5082931;27;20542;-78
2023/10/26 08:57:33;;;;;;;50.25;24.77;;;;;;;8.32;100.00;99476.97;5086768;28;20046;-78
2023/10/26 08:59:59;;;;;;;50.20;25.13;;;;;;;8.45;100.00;99464.66;5084135;28;20028;-79
2023/10/26 09:02:25;;;;;;;50.85;24.30;;;;;;;8.47;100.00;99470.69;5086160;28;20102;-78
2023/10/26 09:05:03;;;;;;;39.58;23.95;;;;;;;8.57;100.00;99472.75;5079669;28;20040;-80
2023/10/26 09:07:29;;;;;;;42.00;23.85;;;;;;;8.46;100.00;99471.66;5088922;28;20055;-77
2023/10/26 09:09:54;;;;;;;39.40;24.33;;;;;;;8.62;100.00;99468.03;5079439;28;20061;-79
2023/10/26 09:12:20;;;;;;;44.17;25.13;;;;;;;8.76;100.00;99472.41;5086028;28;20032;-79
2023/10/26 09:15:03;;;;;;;44.35;25.95;;;;;;;8.75;100.00;99463.63;5087347;28;20567;-79
2023/10/26 09:17:30;;;;;;;43.63;25.27;;;;;;;8.62;100.00;99457.41;5082932;28;20058;-79
2023/10/26 09:19:57;;;;;;;45.80;26.80;;;;;;;8.60;100.00;99464.59;5068353;28;20027;-79
2023/10/26 09:22:38;;;;;;;43.83;26.38;;;;;;;8.72;100.00;99463.81;5076015;28;20039;-76
2023/10/26 09:25:09;;;;;;;39.67;25.52;;;;;;;8.60;100.00;99468.09;5080890;28;20108;-79
2023/10/26 09:27:35;;;;;;;46.22;26.50;;;;;;;8.66;100.00;99465.06;5075789;28;20039;-80
2023/10/26 09:30:01;;;;;;;44.72;26.50;;;;;;;8.68;100.00;99459.66;5069364;28;20023;-81
2023/10/26 09:32:34;;;;;;;49.15;28.00;;;;;;;8.87;100.00;99470.78;5076746;28;20043;-77
2023/10/26 09:35:01;;;;;;;53.93;29.13;;;;;;;8.93;100.00;99462.38;5083799;28;20035;-78
2023/10/26 09:37:26;;;;;;;49.97;27.90;;;;;;;9.10;100.00;99466.56;5081466;28;20289;-78
2023/10/26 09:39:52;;;;;;;51.97;29.38;;;;;;;9.10;100.00;99471.03;5066688;28;20036;-78
2023/10/26 09:42:19;;;;;;;46.53;28.20;;;;;;;9.12;100.00;99467.34;5073235;28;20021;-81
2023/10/26 09:44:46;;;;;;;52.85;31.10;;;;;;;9.14;100.00;99469.88;5077904;28;20055;-79
2023/10/26 09:47:12;;;;;;;45.90;28.73;;;;;;;9.13;100.00;99460.22;5079713;28;20854;-78
2023/10/26 09:49:37;;;;;;;43.17;27.02;;;;;;;9.12;100.00;99466.50;5078770;28;20043;-79
2023/10/26 09:52:03;;;;;;;43.22;26.85;;;;;;;9.07;100.00;99460.63;5081822;28;20027;-78
2023/10/26 09:54:40;;;;;;;41.67;27.33;;;;;;;9.05;100.00;99449.28;5072121;28;20036;-80
2023/10/26 09:57:19;;;;;;;42.42;27.55;;;;;;;9.02;100.00;99455.63;5083491;28;20399;-80
2023/10/26 09:59:50;;;;;;;43.03;27.60;;;;;;;8.80;100.00;99440.28;5076099;28;20043;-80
2023/10/26 10:02:16;;;;;;;40.28;26.05;;;;;;;8.73;100.00;99444.28;5078656;28;20032;-80
2023/10/26 10:04:42;;;;;;;41.63;27.52;;;;;;;8.76;100.00;99444.09;5083202;28;20043;-79
2023/10/26 10:07:07;;;;;;;40.30;26.42;;;;;;;8.75;100.00;99446.84;5084865;28;20095;-82
2023/10/26 10:09:59;;;;;;;44.55;28.10;;;;;;;8.85;100.00;99442.63;5080968;28;20051;-79
2023/10/26 10:12:24;;;;;;;39.88;26.25;;;;;;;8.78;100.00;99438.66;5080537;28;20031;-78
2023/10/26 10:14:51;;;;;;;39.58;26.10;;;;;;;8.82;100.00;99434.84;5073467;28;20039;-78
2023/10/26 10:17:20;;;;;;;44.60;28.30;;;;;;;8.87;100.00;99430.97;5079845;28;20043;-79
2023/10/26 10:19:47;;;;;;;43.35;26.50;;;;;;;8.83;100.00;99431.28;5079773;28;20401;-82
2023/10/26 10:22:36;;;;;;;42.50;27.23;;;;;;;8.86;100.00;99429.28;5076069;28;20020;-80
2023/10/26 10:25:02;;;;;;;44.47;27.85;;;;;;;8.80;100.00;99429.66;5074325;28;20036;-81
2023/10/26 10:27:28;;;;;;;45.20;27.65;;;;;;;8.81;100.00;99414.59;5066662;28;20379;-80
2023/10/26 10:30:05;;;;;;;41.70;27.15;;;;;;;8.84;100.00;99409.94;5074916;28;20082;-80
2023/10/26 10:32:48;;;;;;;42.65;27.33;;;;;;;8.86;100.00;99404.53;5071051;28;20052;-79
2023/10/26 10:35:35;;;;;;;39.28;25.65;;;;;;;8.86;100.00;99402.75;5073718;28;20447;-81
2023/10/26 10:38:19;;;;;;;40.20;27.02;;;;;;;8.87;100.00;99411.56;5066279;28;20119;-82
2023/10/26 10:40:59;;;;;;;;;;;;;;;9.02;100.00;99421.13;5071592;28;20028;-80
2023/10/26 10:43:31;;;;;;;35.03;25.10;;;;;;;8.76;100.00;99417.56;5070565;28;19916;-80
2023/10/26 10:45:56;;;;;;;38.08;25.40;;;;;;;8.73;100.00;99409.78;5080877;28;20016;-78
2023/10/26 10:48:22;;;;;;;40.05;26.80;;;;;;;8.74;100.00;99419.47;5087718;28;20047;-80
2023/10/26 10:50:51;;;;;;;41.88;27.45;;;;;;;8.76;100.00;99408.75;5071548;28;20170;-80
2023/10/26 10:53:16;;;;;;;41.80;26.92;;;;;;;8.79;100.00;99401.44;5076166;28;20055;-79
2023/10/26 10:55:43;;;;;;;46.20;28.15;;;;;;;8.76;100.00;99403.44;5079032;28;20032;-80
2023/10/26 10:58:09;;;;;;;42.00;27.83;;;;;;;8.81;100.00;99402.19;5091170;28;20017;-81
2023/10/26 11:00:45;;;;;;;39.83;28.20;;;;;;;8.87;100.00;99393.81;5074208;28;20399;-79
2023/10/26 11:03:21;;;;;;;41.65;28.02;;;;;;;9.06;100.00;99396.06;5081815;28;20046;-83
2023/10/26 11:05:47;;;;;;;43.97;29.63;;;;;;;8.96;100.00;99398.50;5081787;28;20027;-80
2023/10/26 11:08:14;;;;;;;43.72;29.38;;;;;;;8.91;100.00;99386.50;5086231;28;20055;-80
2023/10/26 11:10:39;;;;;;;43.10;29.30;;;;;;;8.96;100.00;99387.91;5083033;28;20026;-78
2023/10/26 11:13:05;;;;;;;49.97;31.15;;;;;;;9.09;100.00;99381.75;5075396;28;20373;-81